sensor_id;sensor_type;location;lat;lon;timestamp;P1;durP1;ratioP1;P2;durP2;ratioP2
21647;SDS011;10985;54.182;7.890;2023-04-10T00:02:12;98.78;;;58.92;;
21647;SDS011;10985;54.182;7.890;2023-04-10T00:04:37;98.18;;;58.50;;
21647;SDS011;10985;54.182;7.890;2023-04-10T00:07:03;101.15;;;60.38;;
21647;SDS011;10985;54.182;7.890;2023-04-10T00:09:29;98.63;;;59.50;;
21647;SDS011;10985;54.182;7.890;2023-04-10T00:11:55;107.78;;;62.45;;
21647;SDS011;10985;54.182;7.890;2023-04-10T00:14:20;99.43;;;60.65;;
21647;SDS011;10985;54.182;7.890;2023-04-10T00:16:48;101.93;;;60.85;;
21647;SDS011;10985;54.182;7.890;2023-04-10T00:19:14;96.97;;;59.38;;
21647;SDS011;10985;54.182;7.890;2023-04-10T00:21:40;101.82;;;57.70;;
21647;SDS011;10985;54.182;7.890;2023-04-10T00:24:05;95.40;;;58.40;;
21647;SDS011;10985;54.182;7.890;2023-04-10T00:26:31;96.55;;;58.47;;
21647;SDS011;10985;54.182;7.890;2023-04-10T00:28:57;97.70;;;55.75;;
21647;SDS011;10985;54.182;7.890;2023-04-10T00:31:22;91.50;;;56.20;;
21647;SDS011;10985;54.182;7.890;2023-04-10T00:33:48;95.80;;;56.63;;
21647;SDS011;10985;54.182;7.890;2023-04-10T00:36:13;92.97;;;55.15;;
21647;SDS011;10985;54.182;7.890;2023-04-10T00:38:39;92.97;;;55.08;;
21647;SDS011;10985;54.182;7.890;2023-04-10T00:41:05;96.55;;;54.60;;
21647;SDS011;10985;54.182;7.890;2023-04-10T00:43:31;83.70;;;50.85;;
21647;SDS011;10985;54.182;7.890;2023-04-10T00:45:56;84.38;;;51.42;;
21647;SDS011;10985;54.182;7.890;2023-04-10T00:48:22;87.85;;;52.83;;
21647;SDS011;10985;54.182;7.890;2023-04-10T00:50:48;87.63;;;49.90;;
21647;SDS011;10985;54.182;7.890;2023-04-10T00:53:13;83.97;;;50.10;;
21647;SDS011;10985;54.182;7.890;2023-04-10T00:55:39;86.18;;;52.03;;
21647;SDS011;10985;54.182;7.890;2023-04-10T00:58:05;85.10;;;50.47;;
21647;SDS011;10985;54.182;7.890;2023-04-10T01:00:30;95.35;;;51.35;;
21647;SDS011;10985;54.182;7.890;2023-04-10T01:02:56;83.78;;;51.45;;
21647;SDS011;10985;54.182;7.890;2023-04-10T01:05:24;81.45;;;49.03;;
21647;SDS011;10985;54.182;7.890;2023-04-10T01:07:59;87.65;;;51.17;;
21647;SDS011;10985;54.182;7.890;2023-04-10T01:15:55;84.15;;;49.33;;
21647;SDS011;10985;54.182;7.890;2023-04-10T01:18:27;87.30;;;50.30;;
21647;SDS011;10985;54.182;7.890;2023-04-10T01:21:04;86.95;;;50.83;;
21647;SDS011;10985;54.182;7.890;2023-04-10T01:29:18;93.88;;;53.00;;
21647;SDS011;10985;54.182;7.890;2023-04-10T01:31:49;93.35;;;55.13;;
21647;SDS011;10985;54.182;7.890;2023-04-10T01:34:20;88.60;;;53.75;;
21647;SDS011;10985;54.182;7.890;2023-04-10T01:36:50;91.22;;;52.92;;
21647;SDS011;10985;54.182;7.890;2023-04-10T01:39:20;90.53;;;52.20;;
21647;SDS011;10985;54.182;7.890;2023-04-10T01:41:47;93.50;;;54.65;;
21647;SDS011;10985;54.182;7.890;2023-04-10T01:44:15;97.70;;;54.28;;
21647;SDS011;10985;54.182;7.890;2023-04-10T01:46:43;93.47;;;54.67;;
21647;SDS011;10985;54.182;7.890;2023-04-10T01:49:10;97.63;;;52.88;;
21647;SDS011;10985;54.182;7.890;2023-04-10T01:51:37;93.10;;;53.45;;
21647;SDS011;10985;54.182;7.890;2023-04-10T01:54:03;91.22;;;52.35;;
21647;SDS011;10985;54.182;7.890;2023-04-10T01:56:30;100.22;;;54.60;;
21647;SDS011;10985;54.182;7.890;2023-04-10T01:58:58;94.63;;;52.50;;
21647;SDS011;10985;54.182;7.890;2023-04-10T02:01:23;91.88;;;53.40;;
21647;SDS011;10985;54.182;7.890;2023-04-10T02:03:49;91.03;;;52.55;;
21647;SDS011;10985;54.182;7.890;2023-04-10T02:06:22;88.88;;;52.35;;
21647;SDS011;10985;54.182;7.890;2023-04-10T02:09:03;89.15;;;50.72;;
21647;SDS011;10985;54.182;7.890;2023-04-10T02:11:40;88.50;;;52.28;;
21647;SDS011;10985;54.182;7.890;2023-04-10T02:14:15;87.13;;;51.05;;
21647;SDS011;10985;54.182;7.890;2023-04-10T02:16:42;85.50;;;51.72;;
21647;SDS011;10985;54.182;7.890;2023-04-10T02:19:09;85.18;;;49.28;;
21647;SDS011;10985;54.182;7.890;2023-04-10T02:21:36;88.30;;;50.45;;
21647;SDS011;10985;54.182;7.890;2023-04-10T02:24:04;89.63;;;51.22;;
21647;SDS011;10985;54.182;7.890;2023-04-10T02:26:42;84.63;;;49.38;;
21647;SDS011;10985;54.182;7.890;2023-04-10T02:29:08;88.68;;;49.03;;
21647;SDS011;10985;54.182;7.890;2023-04-10T02:31:34;81.97;;;49.08;;
21647;SDS011;10985;54.182;7.890;2023-04-10T02:33:59;86.15;;;50.17;;
21647;SDS011;10985;54.182;7.890;2023-04-10T02:36:25;88.93;;;48.95;;
21647;SDS011;10985;54.182;7.890;2023-04-10T02:38:50;86.78;;;48.05;;
21647;SDS011;10985;54.182;7.890;2023-04-10T02:41:16;81.82;;;46.75;;
21647;SDS011;10985;54.182;7.890;2023-04-10T02:43:41;79.38;;;46.00;;
21647;SDS011;10985;54.182;7.890;2023-04-10T02:46:07;78.90;;;46.83;;
21647;SDS011;10985;54.182;7.890;2023-04-10T02:48:32;86.20;;;47.70;;
21647;SDS011;10985;54.182;7.890;2023-04-10T02:50:57;83.93;;;47.35;;
21647;SDS011;10985;54.182;7.890;2023-04-10T02:53:23;83.57;;;45.65;;
21647;SDS011;10985;54.182;7.890;2023-04-10T02:55:51;76.55;;;46.33;;
21647;SDS011;10985;54.182;7.890;2023-04-10T02:58:17;82.32;;;46.40;;
21647;SDS011;10985;54.182;7.890;2023-04-10T03:00:46;87.50;;;49.78;;
21647;SDS011;10985;54.182;7.890;2023-04-10T03:03:13;85.38;;;48.13;;
21647;SDS011;10985;54.182;7.890;2023-04-10T03:05:38;87.93;;;50.28;;
21647;SDS011;10985;54.182;7.890;2023-04-10T03:08:04;89.35;;;49.97;;
21647;SDS011;10985;54.182;7.890;2023-04-10T03:10:29;93.28;;;52.42;;
21647;SDS011;10985;54.182;7.890;2023-04-10T03:12:55;88.40;;;50.88;;
21647;SDS011;10985;54.182;7.890;2023-04-10T03:15:20;88.25;;;51.80;;
21647;SDS011;10985;54.182;7.890;2023-04-10T03:17:46;91.43;;;51.40;;
21647;SDS011;10985;54.182;7.890;2023-04-10T03:20:11;94.82;;;53.38;;
21647;SDS011;10985;54.182;7.890;2023-04-10T03:22:37;94.18;;;51.17;;
21647;SDS011;10985;54.182;7.890;2023-04-10T03:25:03;90.22;;;48.60;;
21647;SDS011;10985;54.182;7.890;2023-04-10T03:27:29;93.32;;;52.70;;
21647;SDS011;10985;54.182;7.890;2023-04-10T03:29:58;93.20;;;51.92;;
21647;SDS011;10985;54.182;7.890;2023-04-10T03:32:24;92.65;;;52.25;;
21647;SDS011;10985;54.182;7.890;2023-04-10T03:34:52;85.93;;;49.83;;
21647;SDS011;10985;54.182;7.890;2023-04-10T03:37:17;87.53;;;48.92;;
21647;SDS011;10985;54.182;7.890;2023-04-10T03:39:43;88.43;;;49.15;;
21647;SDS011;10985;54.182;7.890;2023-04-10T03:42:09;94.97;;;50.97;;
21647;SDS011;10985;54.182;7.890;2023-04-10T03:44:35;94.82;;;51.30;;
21647;SDS011;10985;54.182;7.890;2023-04-10T03:47:01;92.30;;;51.40;;
21647;SDS011;10985;54.182;7.890;2023-04-10T03:49:27;94.93;;;49.75;;
21647;SDS011;10985;54.182;7.890;2023-04-10T03:51:52;93.55;;;51.70;;
21647;SDS011;10985;54.182;7.890;2023-04-10T03:54:18;95.00;;;50.55;;
21647;SDS011;10985;54.182;7.890;2023-04-10T03:56:43;88.25;;;49.47;;
21647;SDS011;10985;54.182;7.890;2023-04-10T03:59:09;83.43;;;48.28;;
21647;SDS011;10985;54.182;7.890;2023-04-10T04:01:34;94.45;;;48.70;;
21647;SDS011;10985;54.182;7.890;2023-04-10T04:04:00;93.25;;;49.30;;
21647;SDS011;10985;54.182;7.890;2023-04-10T04:06:25;86.78;;;49.75;;
21647;SDS011;10985;54.182;7.890;2023-04-10T04:08:51;85.35;;;49.15;;
21647;SDS011;10985;54.182;7.890;2023-04-10T04:11:17;88.70;;;48.85;;
21647;SDS011;10985;54.182;7.890;2023-04-10T04:13:42;89.50;;;49.33;;
21647;SDS011;10985;54.182;7.890;2023-04-10T04:16:08;87.18;;;49.05;;
21647;SDS011;10985;54.182;7.890;2023-04-10T04:18:34;97.57;;;50.30;;
21647;SDS011;10985;54.182;7.890;2023-04-10T04:20:59;87.28;;;51.40;;
21647;SDS011;10985;54.182;7.890;2023-04-10T04:23:25;93.13;;;50.97;;
21647;SDS011;10985;54.182;7.890;2023-04-10T04:25:50;88.30;;;49.58;;
21647;SDS011;10985;54.182;7.890;2023-04-10T04:28:18;90.53;;;48.72;;
21647;SDS011;10985;54.182;7.890;2023-04-10T04:30:43;94.65;;;49.22;;
21647;SDS011;10985;54.182;7.890;2023-04-10T04:33:09;93.65;;;51.53;;
21647;SDS011;10985;54.182;7.890;2023-04-10T04:35:34;88.93;;;49.35;;
21647;SDS011;10985;54.182;7.890;2023-04-10T04:38:00;88.85;;;47.42;;
21647;SDS011;10985;54.182;7.890;2023-04-10T04:40:26;101.00;;;51.47;;
21647;SDS011;10985;54.182;7.890;2023-04-10T04:42:51;100.28;;;51.42;;
21647;SDS011;10985;54.182;7.890;2023-04-10T04:45:17;93.88;;;49.58;;
21647;SDS011;10985;54.182;7.890;2023-04-10T04:47:42;95.38;;;53.22;;
21647;SDS011;10985;54.182;7.890;2023-04-10T04:50:08;98.50;;;51.67;;
21647;SDS011;10985;54.182;7.890;2023-04-10T04:52:33;95.03;;;51.58;;
21647;SDS011;10985;54.182;7.890;2023-04-10T04:54:59;95.65;;;49.50;;
21647;SDS011;10985;54.182;7.890;2023-04-10T04:57:25;96.30;;;52.42;;
21647;SDS011;10985;54.182;7.890;2023-04-10T04:59:50;96.00;;;51.90;;
21647;SDS011;10985;54.182;7.890;2023-04-10T05:02:16;95.53;;;52.78;;
21647;SDS011;10985;54.182;7.890;2023-04-10T05:04:42;104.30;;;52.63;;
21647;SDS011;10985;54.182;7.890;2023-04-10T05:07:08;92.93;;;50.72;;
21647;SDS011;10985;54.182;7.890;2023-04-10T05:09:34;101.45;;;54.00;;
21647;SDS011;10985;54.182;7.890;2023-04-10T05:12:00;98.05;;;51.15;;
21647;SDS011;10985;54.182;7.890;2023-04-10T05:14:26;95.50;;;50.83;;
21647;SDS011;10985;54.182;7.890;2023-04-10T05:16:51;99.00;;;52.10;;
21647;SDS011;10985;54.182;7.890;2023-04-10T05:19:17;92.20;;;52.65;;
21647;SDS011;10985;54.182;7.890;2023-04-10T05:21:42;102.90;;;52.35;;
21647;SDS011;10985;54.182;7.890;2023-04-10T05:24:08;95.15;;;50.78;;
21647;SDS011;10985;54.182;7.890;2023-04-10T05:26:33;101.25;;;51.55;;
21647;SDS011;10985;54.182;7.890;2023-04-10T05:28:59;92.45;;;49.60;;
21647;SDS011;10985;54.182;7.890;2023-04-10T05:31:24;97.63;;;49.38;;
21647;SDS011;10985;54.182;7.890;2023-04-10T05:33:50;92.40;;;51.17;;
21647;SDS011;10985;54.182;7.890;2023-04-10T05:36:15;90.78;;;49.22;;
21647;SDS011;10985;54.182;7.890;2023-04-10T05:38:42;84.07;;;49.72;;
21647;SDS011;10985;54.182;7.890;2023-04-10T05:41:07;82.30;;;46.58;;
21647;SDS011;10985;54.182;7.890;2023-04-10T05:43:33;86.78;;;48.90;;
21647;SDS011;10985;54.182;7.890;2023-04-10T05:45:58;93.10;;;48.00;;
21647;SDS011;10985;54.182;7.890;2023-04-10T05:48:24;87.28;;;49.45;;
21647;SDS011;10985;54.182;7.890;2023-04-10T05:50:50;93.07;;;48.65;;
21647;SDS011;10985;54.182;7.890;2023-04-10T05:53:17;90.72;;;49.03;;
21647;SDS011;10985;54.182;7.890;2023-04-10T05:55:44;88.55;;;50.47;;
21647;SDS011;10985;54.182;7.890;2023-04-10T05:58:09;86.78;;;47.22;;
21647;SDS011;10985;54.182;7.890;2023-04-10T06:00:35;88.15;;;48.65;;
21647;SDS011;10985;54.182;7.890;2023-04-10T06:03:01;84.55;;;49.10;;
21647;SDS011;10985;54.182;7.890;2023-04-10T06:05:27;90.72;;;51.15;;
21647;SDS011;10985;54.182;7.890;2023-04-10T06:07:53;88.35;;;48.95;;
21647;SDS011;10985;54.182;7.890;2023-04-10T06:10:18;77.45;;;45.20;;
21647;SDS011;10985;54.182;7.890;2023-04-10T06:12:44;79.28;;;46.25;;
21647;SDS011;10985;54.182;7.890;2023-04-10T06:15:09;79.05;;;43.75;;
21647;SDS011;10985;54.182;7.890;2023-04-10T06:17:40;77.32;;;43.90;;
21647;SDS011;10985;54.182;7.890;2023-04-10T06:20:07;74.85;;;42.78;;
21647;SDS011;10985;54.182;7.890;2023-04-10T06:22:33;70.13;;;42.70;;
21647;SDS011;10985;54.182;7.890;2023-04-10T06:24:58;79.63;;;43.72;;
21647;SDS011;10985;54.182;7.890;2023-04-10T06:27:24;69.55;;;40.83;;
21647;SDS011;10985;54.182;7.890;2023-04-10T06:29:49;73.10;;;41.70;;
21647;SDS011;10985;54.182;7.890;2023-04-10T06:32:15;76.95;;;43.13;;
21647;SDS011;10985;54.182;7.890;2023-04-10T06:34:40;75.53;;;44.22;;
21647;SDS011;10985;54.182;7.890;2023-04-10T06:37:06;71.13;;;41.10;;
21647;SDS011;10985;54.182;7.890;2023-04-10T06:39:31;72.32;;;42.00;;
21647;SDS011;10985;54.182;7.890;2023-04-10T06:41:57;76.30;;;42.28;;
21647;SDS011;10985;54.182;7.890;2023-04-10T06:44:22;67.82;;;42.22;;
21647;SDS011;10985;54.182;7.890;2023-04-10T06:46:48;68.60;;;41.33;;
21647;SDS011;10985;54.182;7.890;2023-04-10T06:49:14;74.38;;;43.45;;
21647;SDS011;10985;54.182;7.890;2023-04-10T06:51:39;69.55;;;41.72;;
21647;SDS011;10985;54.182;7.890;2023-04-10T06:54:05;71.50;;;40.78;;
21647;SDS011;10985;54.182;7.890;2023-04-10T06:56:30;72.97;;;42.10;;
21647;SDS011;10985;54.182;7.890;2023-04-10T06:58:56;72.82;;;42.80;;
21647;SDS011;10985;54.182;7.890;2023-04-10T07:01:21;66.53;;;40.65;;
21647;SDS011;10985;54.182;7.890;2023-04-10T07:03:47;65.53;;;40.17;;
21647;SDS011;10985;54.182;7.890;2023-04-10T07:06:14;69.97;;;42.15;;
21647;SDS011;10985;54.182;7.890;2023-04-10T07:08:40;68.43;;;40.80;;
21647;SDS011;10985;54.182;7.890;2023-04-10T07:11:06;71.18;;;40.67;;
21647;SDS011;10985;54.182;7.890;2023-04-10T07:13:32;69.55;;;40.00;;
21647;SDS011;10985;54.182;7.890;2023-04-10T07:15:59;71.10;;;40.25;;
21647;SDS011;10985;54.182;7.890;2023-04-10T07:18:25;64.53;;;39.45;;
21647;SDS011;10985;54.182;7.890;2023-04-10T07:20:51;71.00;;;41.60;;
21647;SDS011;10985;54.182;7.890;2023-04-10T07:23:17;67.38;;;38.85;;
21647;SDS011;10985;54.182;7.890;2023-04-10T07:25:45;67.95;;;41.05;;
21647;SDS011;10985;54.182;7.890;2023-04-10T07:28:10;63.63;;;37.22;;
21647;SDS011;10985;54.182;7.890;2023-04-10T07:30:36;69.63;;;40.25;;
21647;SDS011;10985;54.182;7.890;2023-04-10T07:33:01;61.10;;;37.28;;
21647;SDS011;10985;54.182;7.890;2023-04-10T07:35:27;69.18;;;41.20;;
21647;SDS011;10985;54.182;7.890;2023-04-10T07:37:52;65.90;;;39.80;;
21647;SDS011;10985;54.182;7.890;2023-04-10T07:40:18;69.03;;;38.67;;
21647;SDS011;10985;54.182;7.890;2023-04-10T07:42:44;64.10;;;38.47;;
21647;SDS011;10985;54.182;7.890;2023-04-10T07:45:10;63.10;;;37.97;;
21647;SDS011;10985;54.182;7.890;2023-04-10T07:47:36;59.67;;;36.80;;
21647;SDS011;10985;54.182;7.890;2023-04-10T07:50:02;68.95;;;38.83;;
21647;SDS011;10985;54.182;7.890;2023-04-10T07:52:27;62.45;;;37.10;;
21647;SDS011;10985;54.182;7.890;2023-04-10T07:54:53;60.90;;;36.22;;
21647;SDS011;10985;54.182;7.890;2023-04-10T07:57:18;58.78;;;35.25;;
21647;SDS011;10985;54.182;7.890;2023-04-10T07:59:44;62.53;;;36.90;;
21647;SDS011;10985;54.182;7.890;2023-04-10T08:04:38;61.13;;;35.72;;
21647;SDS011;10985;54.182;7.890;2023-04-10T08:07:03;60.55;;;35.17;;
21647;SDS011;10985;54.182;7.890;2023-04-10T08:09:29;60.38;;;35.92;;
21647;SDS011;10985;54.182;7.890;2023-04-10T08:11:55;54.05;;;33.88;;
21647;SDS011;10985;54.182;7.890;2023-04-10T08:14:21;57.92;;;36.13;;
21647;SDS011;10985;54.182;7.890;2023-04-10T08:16:46;54.25;;;34.30;;
21647;SDS011;10985;54.182;7.890;2023-04-10T08:19:12;56.60;;;33.03;;
21647;SDS011;10985;54.182;7.890;2023-04-10T08:21:37;57.25;;;32.28;;
21647;SDS011;10985;54.182;7.890;2023-04-10T08:24:03;55.25;;;34.05;;
21647;SDS011;10985;54.182;7.890;2023-04-10T08:26:29;53.78;;;33.67;;
21647;SDS011;10985;54.182;7.890;2023-04-10T08:28:55;50.65;;;31.33;;
21647;SDS011;10985;54.182;7.890;2023-04-10T08:31:22;52.35;;;32.22;;
21647;SDS011;10985;54.182;7.890;2023-04-10T08:33:49;53.35;;;32.88;;
21647;SDS011;10985;54.182;7.890;2023-04-10T08:36:14;49.75;;;31.25;;
21647;SDS011;10985;54.182;7.890;2023-04-10T08:38:41;46.13;;;28.95;;
21647;SDS011;10985;54.182;7.890;2023-04-10T08:41:13;54.33;;;31.67;;
21647;SDS011;10985;54.182;7.890;2023-04-10T08:43:40;48.90;;;31.63;;
21647;SDS011;10985;54.182;7.890;2023-04-10T08:46:05;47.78;;;31.17;;
21647;SDS011;10985;54.182;7.890;2023-04-10T08:48:37;49.85;;;32.55;;
21647;SDS011;10985;54.182;7.890;2023-04-10T08:51:06;47.72;;;29.50;;
21647;SDS011;10985;54.182;7.890;2023-04-10T08:53:33;50.78;;;31.17;;
21647;SDS011;10985;54.182;7.890;2023-04-10T08:56:05;47.00;;;30.58;;
21647;SDS011;10985;54.182;7.890;2023-04-10T08:58:31;48.45;;;31.45;;
21647;SDS011;10985;54.182;7.890;2023-04-10T09:00:57;45.47;;;28.67;;
21647;SDS011;10985;54.182;7.890;2023-04-10T09:03:24;48.97;;;30.15;;
21647;SDS011;10985;54.182;7.890;2023-04-10T09:05:51;45.00;;;29.33;;
21647;SDS011;10985;54.182;7.890;2023-04-10T09:08:17;45.85;;;29.05;;
21647;SDS011;10985;54.182;7.890;2023-04-10T09:10:43;42.60;;;28.55;;
21647;SDS011;10985;54.182;7.890;2023-04-10T09:13:08;41.33;;;28.40;;
21647;SDS011;10985;54.182;7.890;2023-04-10T09:18:38;44.80;;;27.80;;
21647;SDS011;10985;54.182;7.890;2023-04-10T09:21:05;45.40;;;28.45;;
21647;SDS011;10985;54.182;7.890;2023-04-10T09:23:31;46.63;;;29.33;;
21647;SDS011;10985;54.182;7.890;2023-04-10T09:25:57;41.58;;;27.45;;
21647;SDS011;10985;54.182;7.890;2023-04-10T09:28:22;39.92;;;27.38;;
21647;SDS011;10985;54.182;7.890;2023-04-10T09:30:48;43.15;;;26.80;;
21647;SDS011;10985;54.182;7.890;2023-04-10T09:33:23;37.70;;;26.58;;
21647;SDS011;10985;54.182;7.890;2023-04-10T09:35:57;39.22;;;25.27;;
21647;SDS011;10985;54.182;7.890;2023-04-10T09:38:27;38.97;;;26.33;;
21647;SDS011;10985;54.182;7.890;2023-04-10T09:40:53;37.47;;;26.27;;
21647;SDS011;10985;54.182;7.890;2023-04-10T09:43:31;34.83;;;25.00;;
21647;SDS011;10985;54.182;7.890;2023-04-10T09:45:56;43.22;;;27.95;;
21647;SDS011;10985;54.182;7.890;2023-04-10T09:48:23;37.58;;;24.02;;
21647;SDS011;10985;54.182;7.890;2023-04-10T09:50:50;33.95;;;23.33;;
21647;SDS011;10985;54.182;7.890;2023-04-10T09:53:16;38.65;;;23.48;;
21647;SDS011;10985;54.182;7.890;2023-04-10T09:55:44;37.67;;;24.48;;
21647;SDS011;10985;54.182;7.890;2023-04-10T09:58:11;34.83;;;23.30;;
21647;SDS011;10985;54.182;7.890;2023-04-10T10:00:41;28.20;;;21.65;;
21647;SDS011;10985;54.182;7.890;2023-04-10T10:03:13;33.30;;;23.95;;
21647;SDS011;10985;54.182;7.890;2023-04-10T10:05:40;30.90;;;22.80;;
21647;SDS011;10985;54.182;7.890;2023-04-10T10:08:08;36.42;;;22.10;;
21647;SDS011;10985;54.182;7.890;2023-04-10T10:10:40;32.10;;;23.13;;
21647;SDS011;10985;54.182;7.890;2023-04-10T10:13:19;33.25;;;22.70;;
21647;SDS011;10985;54.182;7.890;2023-04-10T10:18:30;37.28;;;23.73;;
21647;SDS011;10985;54.182;7.890;2023-04-10T10:21:00;30.38;;;22.40;;
21647;SDS011;10985;54.182;7.890;2023-04-10T10:23:27;31.63;;;23.48;;
21647;SDS011;10985;54.182;7.890;2023-04-10T10:25:53;40.65;;;22.73;;
21647;SDS011;10985;54.182;7.890;2023-04-10T10:28:19;33.90;;;23.67;;
21647;SDS011;10985;54.182;7.890;2023-04-10T10:30:46;29.88;;;22.15;;
21647;SDS011;10985;54.182;7.890;2023-04-10T10:33:12;31.52;;;22.88;;
21647;SDS011;10985;54.182;7.890;2023-04-10T10:35:38;29.40;;;21.48;;
21647;SDS011;10985;54.182;7.890;2023-04-10T10:38:04;30.23;;;21.17;;
21647;SDS011;10985;54.182;7.890;2023-04-10T10:40:43;29.10;;;20.85;;
21647;SDS011;10985;54.182;7.890;2023-04-10T10:45:49;26.10;;;20.13;;
21647;SDS011;10985;54.182;7.890;2023-04-10T10:48:26;25.42;;;19.73;;
21647;SDS011;10985;54.182;7.890;2023-04-10T10:50:56;29.67;;;20.05;;
21647;SDS011;10985;54.182;7.890;2023-04-10T10:53:32;26.35;;;19.15;;
21647;SDS011;10985;54.182;7.890;2023-04-10T10:56:32;27.25;;;19.92;;
21647;SDS011;10985;54.182;7.890;2023-04-10T10:58:56;29.10;;;18.70;;
21647;SDS011;10985;54.182;7.890;2023-04-10T11:01:22;26.38;;;19.38;;
21647;SDS011;10985;54.182;7.890;2023-04-10T11:03:48;26.02;;;19.35;;
21647;SDS011;10985;54.182;7.890;2023-04-10T11:06:15;26.38;;;17.52;;
21647;SDS011;10985;54.182;7.890;2023-04-10T11:08:46;29.15;;;17.85;;
21647;SDS011;10985;54.182;7.890;2023-04-10T11:21:30;26.30;;;16.50;;
21647;SDS011;10985;54.182;7.890;2023-04-10T11:29:05;23.95;;;16.30;;
21647;SDS011;10985;54.182;7.890;2023-04-10T11:31:34;24.65;;;16.02;;
21647;SDS011;10985;54.182;7.890;2023-04-10T11:34:03;24.20;;;16.30;;
21647;SDS011;10985;54.182;7.890;2023-04-10T11:36:31;24.13;;;15.23;;
21647;SDS011;10985;54.182;7.890;2023-04-10T11:39:01;20.55;;;14.88;;
21647;SDS011;10985;54.182;7.890;2023-04-10T11:41:35;22.25;;;15.63;;
21647;SDS011;10985;54.182;7.890;2023-04-10T11:44:03;26.00;;;14.88;;
21647;SDS011;10985;54.182;7.890;2023-04-10T11:46:31;20.65;;;14.27;;
21647;SDS011;10985;54.182;7.890;2023-04-10T11:49:02;21.50;;;12.90;;
21647;SDS011;10985;54.182;7.890;2023-04-10T11:51:29;19.70;;;12.48;;
21647;SDS011;10985;54.182;7.890;2023-04-10T11:54:08;20.02;;;12.93;;
21647;SDS011;10985;54.182;7.890;2023-04-10T11:56:38;20.30;;;12.18;;
21647;SDS011;10985;54.182;7.890;2023-04-10T11:59:05;16.85;;;11.15;;
21647;SDS011;10985;54.182;7.890;2023-04-10T12:01:34;25.40;;;11.45;;
21647;SDS011;10985;54.182;7.890;2023-04-10T12:04:16;21.67;;;10.77;;
21647;SDS011;10985;54.182;7.890;2023-04-10T12:09:12;21.27;;;10.43;;
21647;SDS011;10985;54.182;7.890;2023-04-10T12:11:46;21.08;;;10.25;;
21647;SDS011;10985;54.182;7.890;2023-04-10T12:14:14;19.23;;;11.75;;
21647;SDS011;10985;54.182;7.890;2023-04-10T12:16:40;19.35;;;11.35;;
21647;SDS011;10985;54.182;7.890;2023-04-10T12:19:06;19.60;;;10.85;;
21647;SDS011;10985;54.182;7.890;2023-04-10T12:21:31;14.95;;;10.13;;
21647;SDS011;10985;54.182;7.890;2023-04-10T12:24:00;21.35;;;10.63;;
21647;SDS011;10985;54.182;7.890;2023-04-10T12:26:25;22.58;;;10.80;;
21647;SDS011;10985;54.182;7.890;2023-04-10T12:28:52;18.65;;;10.13;;
21647;SDS011;10985;54.182;7.890;2023-04-10T12:31:25;20.17;;;9.43;;
21647;SDS011;10985;54.182;7.890;2023-04-10T12:33:52;17.58;;;10.07;;
21647;SDS011;10985;54.182;7.890;2023-04-10T12:36:21;19.80;;;10.93;;
21647;SDS011;10985;54.182;7.890;2023-04-10T12:38:49;21.98;;;10.00;;
21647;SDS011;10985;54.182;7.890;2023-04-10T12:41:20;22.00;;;10.82;;
21647;SDS011;10985;54.182;7.890;2023-04-10T12:43:47;20.95;;;9.45;;
21647;SDS011;10985;54.182;7.890;2023-04-10T12:46:21;18.92;;;9.88;;
21647;SDS011;10985;54.182;7.890;2023-04-10T12:48:50;25.38;;;9.88;;
21647;SDS011;10985;54.182;7.890;2023-04-10T12:51:15;19.02;;;10.45;;
21647;SDS011;10985;54.182;7.890;2023-04-10T12:53:44;15.60;;;9.82;;
21647;SDS011;10985;54.182;7.890;2023-04-10T12:56:10;22.98;;;9.77;;
21647;SDS011;10985;54.182;7.890;2023-04-10T12:58:37;20.58;;;10.27;;
21647;SDS011;10985;54.182;7.890;2023-04-10T13:01:04;21.77;;;10.45;;
21647;SDS011;10985;54.182;7.890;2023-04-10T13:03:33;15.98;;;10.10;;
21647;SDS011;10985;54.182;7.890;2023-04-10T13:06:00;18.38;;;10.20;;
21647;SDS011;10985;54.182;7.890;2023-04-10T13:08:26;20.88;;;10.60;;
21647;SDS011;10985;54.182;7.890;2023-04-10T13:10:52;24.35;;;11.05;;
21647;SDS011;10985;54.182;7.890;2023-04-10T13:13:18;16.42;;;10.00;;
21647;SDS011;10985;54.182;7.890;2023-04-10T13:15:44;21.30;;;10.32;;
21647;SDS011;10985;54.182;7.890;2023-04-10T13:18:10;19.42;;;10.68;;
21647;SDS011;10985;54.182;7.890;2023-04-10T13:20:36;16.45;;;10.60;;
21647;SDS011;10985;54.182;7.890;2023-04-10T13:23:03;19.73;;;10.77;;
21647;SDS011;10985;54.182;7.890;2023-04-10T13:25:30;17.13;;;10.95;;
21647;SDS011;10985;54.182;7.890;2023-04-10T13:27:58;17.83;;;10.65;;
21647;SDS011;10985;54.182;7.890;2023-04-10T13:30:25;18.92;;;10.32;;
21647;SDS011;10985;54.182;7.890;2023-04-10T13:32:50;26.08;;;11.18;;
21647;SDS011;10985;54.182;7.890;2023-04-10T13:35:16;16.50;;;10.50;;
21647;SDS011;10985;54.182;7.890;2023-04-10T13:37:41;18.45;;;10.80;;
21647;SDS011;10985;54.182;7.890;2023-04-10T13:40:07;21.20;;;11.63;;
21647;SDS011;10985;54.182;7.890;2023-04-10T13:42:33;21.40;;;11.13;;
21647;SDS011;10985;54.182;7.890;2023-04-10T13:44:59;23.85;;;10.77;;
21647;SDS011;10985;54.182;7.890;2023-04-10T13:47:25;18.35;;;11.18;;
21647;SDS011;10985;54.182;7.890;2023-04-10T13:49:50;21.10;;;11.10;;
21647;SDS011;10985;54.182;7.890;2023-04-10T13:52:16;18.10;;;11.45;;
21647;SDS011;10985;54.182;7.890;2023-04-10T13:54:41;19.67;;;11.02;;
21647;SDS011;10985;54.182;7.890;2023-04-10T13:57:07;16.77;;;11.15;;
21647;SDS011;10985;54.182;7.890;2023-04-10T13:59:32;17.25;;;11.95;;
21647;SDS011;10985;54.182;7.890;2023-04-10T14:01:58;21.90;;;11.48;;
21647;SDS011;10985;54.182;7.890;2023-04-10T14:04:23;17.67;;;10.93;;
21647;SDS011;10985;54.182;7.890;2023-04-10T14:06:49;16.65;;;11.60;;
21647;SDS011;10985;54.182;7.890;2023-04-10T14:09:16;18.55;;;11.77;;
21647;SDS011;10985;54.182;7.890;2023-04-10T14:11:42;21.48;;;12.23;;
21647;SDS011;10985;54.182;7.890;2023-04-10T14:14:08;19.25;;;11.82;;
21647;SDS011;10985;54.182;7.890;2023-04-10T14:16:33;22.95;;;12.32;;
21647;SDS011;10985;54.182;7.890;2023-04-10T14:18:59;21.50;;;12.10;;
21647;SDS011;10985;54.182;7.890;2023-04-10T14:21:24;18.02;;;11.77;;
21647;SDS011;10985;54.182;7.890;2023-04-10T14:23:50;15.55;;;11.52;;
21647;SDS011;10985;54.182;7.890;2023-04-10T14:26:15;22.55;;;12.45;;
21647;SDS011;10985;54.182;7.890;2023-04-10T14:28:41;19.25;;;11.82;;
21647;SDS011;10985;54.182;7.890;2023-04-10T14:31:06;23.00;;;11.70;;
21647;SDS011;10985;54.182;7.890;2023-04-10T14:33:32;20.67;;;12.10;;
21647;SDS011;10985;54.182;7.890;2023-04-10T14:35:57;26.42;;;12.27;;
21647;SDS011;10985;54.182;7.890;2023-04-10T14:38:23;19.15;;;12.52;;
21647;SDS011;10985;54.182;7.890;2023-04-10T14:40:48;21.80;;;12.20;;
21647;SDS011;10985;54.182;7.890;2023-04-10T14:43:14;20.58;;;12.40;;
21647;SDS011;10985;54.182;7.890;2023-04-10T14:45:40;14.30;;;12.00;;
21647;SDS011;10985;54.182;7.890;2023-04-10T14:48:06;19.77;;;12.60;;
21647;SDS011;10985;54.182;7.890;2023-04-10T14:50:31;18.67;;;12.50;;
21647;SDS011;10985;54.182;7.890;2023-04-10T14:52:57;22.42;;;11.98;;
21647;SDS011;10985;54.182;7.890;2023-04-10T14:55:24;18.67;;;11.80;;
21647;SDS011;10985;54.182;7.890;2023-04-10T14:57:50;25.02;;;13.07;;
21647;SDS011;10985;54.182;7.890;2023-04-10T15:00:15;22.55;;;12.80;;